Terminal Aerodrome Forecast
Issued by NWS

Home | Current Version | Previous Version | Text Only | Print | Product List | Glossary On
Versions: 1 2 3 4 5 6 7 8 9 10 11 12 13 14 15
000
FTAK31 PAJN 071100
TAFAGY
TAF
PAGY 071125Z 0712/0812 VRB03KT P6SM SKC
     FM071700 21006KT P6SM SCT150
     FM072200 21011G18KT P6SM SCT050 BKN100
     FM080200 21015G25KT P6SM SCT025 BKN050
     FM080900 21011G18KT P6SM VCSH SCT020 OVC040
      AMD LTD TO CLD VIS AND WIND=

USA.gov is the U.S. government's official web portal to all federal, state and local government web resources and services.